Time;durP1;ratioP1;P1;durP2;ratioP2;P2;SDS_P1;SDS_P2;PMS_P1;PMS_P2;Temp;Humidity;BMP_temperature;BMP_pressure;BME280_temperature;BME280_humidity;BME280_pressure;Samples;Min_cycle;Max_cycle;Signal;HPM_P1;HPM_P2
2023/06/06 04:31:30;;;;;;;13.15;5.55;;;16.20;69.00;;;;;;5452918;23;20047;-76
2023/06/06 04:33:57;;;;;;;12.30;5.68;;;16.20;69.10;;;;;;4986618;28;20038;-76
2023/06/06 04:36:26;;;;;;;10.10;5.22;;;16.20;69.50;;;;;;4971619;28;20021;-76
2023/06/06 04:38:52;;;;;;;9.50;5.60;;;16.10;69.20;;;;;;4961840;28;20057;-76
2023/06/06 04:41:20;;;;;;;14.00;5.88;;;16.10;69.50;;;;;;4969313;28;20912;-77
2023/06/06 04:43:49;;;;;;;13.57;5.60;;;16.10;69.40;;;;;;5006311;28;20525;-76
2023/06/06 04:46:21;;;;;;;12.35;5.75;;;16.20;69.20;;;;;;5002012;28;20030;-78
2023/06/06 04:48:54;;;;;;;8.95;5.13;;;16.20;68.70;;;;;;4976054;28;20085;-77
2023/06/06 04:51:29;;;;;;;13.95;5.78;;;16.30;68.60;;;;;;4976137;28;20077;-77
2023/06/06 04:54:06;;;;;;;12.90;5.70;;;16.30;68.40;;;;;;4976077;28;20157;-79
2023/06/06 04:56:32;;;;;;;14.50;6.15;;;16.30;68.30;;;;;;4963589;28;20137;-76
2023/06/06 04:59:06;;;;;;;12.35;5.30;;;16.40;68.00;;;;;;4973983;28;20158;-78
2023/06/06 05:01:41;;;;;;;11.57;5.57;;;16.50;68.00;;;;;;4962163;28;20045;-78
2023/06/06 05:04:07;;;;;;;15.90;5.97;;;16.50;67.70;;;;;;4989842;28;20535;-80
2023/06/06 05:06:34;;;;;;;12.43;5.50;;;16.40;67.90;;;;;;4979805;28;20042;-79
2023/06/06 05:09:03;;;;;;;11.05;5.30;;;16.50;67.70;;;;;;4977714;28;20047;-78
2023/06/06 05:11:29;;;;;;;10.20;6.00;;;16.60;67.20;;;;;;4978269;28;20477;-77
2023/06/06 05:13:55;;;;;;;10.63;5.57;;;16.50;67.70;;;;;;4977363;28;20049;-79
2023/06/06 05:16:21;;;;;;;13.52;6.00;;;16.60;67.50;;;;;;4977675;28;20030;-77
2023/06/06 05:18:46;;;;;;;10.48;5.80;;;16.60;67.30;;;;;;4977190;28;20027;-76
2023/06/06 05:21:14;;;;;;;13.80;6.05;;;16.60;67.20;;;;;;4987176;28;20084;-76
2023/06/06 05:23:40;;;;;;;17.23;6.35;;;16.60;67.50;;;;;;4994250;28;20034;-76
2023/06/06 05:26:05;;;;;;;10.60;6.18;;;16.70;67.50;;;;;;4994367;28;20473;-76
2023/06/06 05:28:31;;;;;;;11.57;7.05;;;16.70;67.40;;;;;;4996673;28;20042;-76
2023/06/06 05:30:57;;;;;;;13.18;6.30;;;16.70;67.20;;;;;;4996640;28;20509;-75
2023/06/06 05:33:25;;;;;;;15.05;6.60;;;16.70;66.90;;;;;;4996489;28;20399;-76
2023/06/06 05:35:51;;;;;;;13.43;6.18;;;16.70;67.40;;;;;;4975732;28;20505;-75
2023/06/06 05:38:18;;;;;;;13.32;5.97;;;16.70;67.30;;;;;;4977195;28;20144;-77
2023/06/06 05:40:43;;;;;;;13.25;6.40;;;16.70;67.40;;;;;;4977101;28;20031;-76
2023/06/06 05:43:09;;;;;;;11.63;6.32;;;16.70;67.30;;;;;;4984260;28;20022;-78
2023/06/06 05:45:35;;;;;;;13.57;7.18;;;16.70;67.80;;;;;;4978999;28;20130;-77
2023/06/06 05:48:00;;;;;;;15.10;6.43;;;16.70;67.40;;;;;;4996455;28;20011;-77
2023/06/06 05:50:26;;;;;;;15.57;6.55;;;16.70;68.00;;;;;;4990324;28;20034;-77
2023/06/06 05:52:52;;;;;;;12.23;6.20;;;16.60;68.20;;;;;;4976872;28;20495;-76
2023/06/06 05:55:27;;;;;;;14.63;6.55;;;16.60;68.30;;;;;;4976638;28;20026;-76
2023/06/06 05:57:53;;;;;;;14.95;6.60;;;16.60;68.60;;;;;;4995797;28;20027;-76
2023/06/06 06:00:19;;;;;;;13.13;6.70;;;16.70;68.40;;;;;;4985255;28;20038;-76
2023/06/06 06:02:45;;;;;;;12.25;6.68;;;16.70;68.10;;;;;;4976999;28;20050;-76
2023/06/06 06:05:10;;;;;;;16.90;6.30;;;16.70;68.10;;;;;;4988956;28;20026;-76
2023/06/06 06:07:38;;;;;;;13.48;6.65;;;16.80;68.20;;;;;;4959820;28;20030;-78
2023/06/06 06:10:04;;;;;;;13.13;6.63;;;16.80;68.20;;;;;;4976985;28;20057;-78
2023/06/06 06:12:29;;;;;;;14.07;7.03;;;16.80;68.00;;;;;;4975526;28;20031;-78
2023/06/06 06:14:55;;;;;;;17.02;6.93;;;16.80;68.30;;;;;;4976908;28;20033;-78
2023/06/06 06:17:22;;;;;;;16.08;7.70;;;16.80;68.00;;;;;;4979160;28;20054;-78
2023/06/06 06:19:48;;;;;;;13.68;6.57;;;16.90;67.90;;;;;;4994573;28;20130;-78
2023/06/06 06:22:13;;;;;;;15.70;6.55;;;16.90;67.80;;;;;;4996372;28;20054;-78
2023/06/06 06:24:39;;;;;;;12.10;6.72;;;17.00;67.20;;;;;;4974483;28;20176;-78
2023/06/06 06:27:05;;;;;;;13.35;6.72;;;17.10;67.60;;;;;;4983403;28;20042;-78
2023/06/06 06:29:31;;;;;;;12.40;7.18;;;17.10;67.30;;;;;;4975580;28;20030;-78
2023/06/06 06:31:56;;;;;;;12.68;6.47;;;17.10;67.90;;;;;;4995341;28;20140;-77
2023/06/06 06:34:22;;;;;;;13.13;6.45;;;17.20;67.60;;;;;;4991201;28;20034;-77
2023/06/06 06:36:48;;;;;;;12.85;6.47;;;17.20;67.40;;;;;;4995747;28;20035;-76
2023/06/06 06:39:18;;;;;;;12.32;6.93;;;17.20;67.10;;;;;;4982806;28;20038;-77
2023/06/06 06:41:45;;;;;;;12.73;6.95;;;17.30;67.20;;;;;;4977454;28;20473;-77
2023/06/06 06:44:11;;;;;;;14.70;6.90;;;17.40;67.30;;;;;;4992846;28;20033;-77
2023/06/06 06:46:37;;;;;;;14.48;6.80;;;17.40;67.30;;;;;;4999091;28;20074;-77
2023/06/06 06:49:02;;;;;;;13.23;7.20;;;17.50;67.30;;;;;;4999575;28;20460;-76
2023/06/06 06:51:29;;;;;;;12.70;7.45;;;17.50;67.00;;;;;;4997246;28;20548;-77
2023/06/06 06:53:57;;;;;;;15.45;7.07;;;17.50;66.80;;;;;;4962871;28;20117;-77
2023/06/06 06:56:24;;;;;;;13.77;7.38;;;17.60;66.50;;;;;;4962995;28;20027;-77
2023/06/06 06:58:50;;;;;;;14.30;6.38;;;17.70;66.10;;;;;;4984624;28;20030;-77
2023/06/06 07:01:19;;;;;;;12.15;7.03;;;17.80;66.20;;;;;;4978828;28;20408;-77
2023/06/06 07:03:48;;;;;;;12.63;6.93;;;17.90;65.40;;;;;;4981904;28;20125;-77
2023/06/06 07:06:13;;;;;;;13.73;6.40;;;18.00;65.10;;;;;;4998495;28;20022;-77
2023/06/06 07:08:41;;;;;;;12.35;7.18;;;18.00;65.50;;;;;;4981798;28;20616;-77
2023/06/06 07:11:07;;;;;;;14.35;7.65;;;18.10;65.50;;;;;;4999666;28;20022;-77
2023/06/06 07:13:33;;;;;;;12.07;7.35;;;18.10;65.00;;;;;;4999519;28;20084;-76
2023/06/06 07:15:58;;;;;;;14.30;7.53;;;18.30;64.40;;;;;;4991721;28;20023;-77
2023/06/06 07:18:24;;;;;;;14.63;7.35;;;18.40;64.10;;;;;;4962645;28;20034;-77
2023/06/06 07:20:51;;;;;;;12.88;6.60;;;18.50;64.40;;;;;;4979816;28;20093;-77
2023/06/06 07:23:16;;;;;;;14.02;7.45;;;18.60;63.90;;;;;;4995648;28;20026;-77
2023/06/06 07:25:42;;;;;;;13.93;7.40;;;18.70;63.40;;;;;;4981865;28;20050;-77
2023/06/06 07:28:10;;;;;;;14.45;6.97;;;18.80;63.50;;;;;;4999196;28;20101;-77
2023/06/06 07:30:36;;;;;;;12.95;7.30;;;19.00;63.20;;;;;;4995129;28;20043;-77
2023/06/06 07:33:01;;;;;;;11.32;7.43;;;19.20;63.10;;;;;;4962183;28;20069;-77
2023/06/06 07:35:32;;;;;;;14.45;7.43;;;19.80;61.30;;;;;;4999037;28;20018;-77
2023/06/06 07:37:59;;;;;;;13.10;7.40;;;20.10;60.30;;;;;;4996840;28;20027;-77
2023/06/06 07:40:24;;;;;;;11.52;7.00;;;21.00;58.40;;;;;;4993706;28;20033;-77
2023/06/06 07:42:50;;;;;;;11.02;7.70;;;21.80;55.90;;;;;;5003380;28;20038;-77
2023/06/06 07:45:16;;;;;;;10.77;7.70;;;23.20;52.30;;;;;;5018525;28;20553;-77
2023/06/06 07:47:42;;;;;;;11.52;7.85;;;25.00;47.90;;;;;;4983599;28;20038;-77
2023/06/06 07:50:08;;;;;;;11.63;7.90;;;27.70;42.90;;;;;;4981296;28;20022;-78
2023/06/06 07:52:43;;;;;;;10.52;8.25;;;29.80;37.30;;;;;;4973420;28;20034;-78
2023/06/06 07:55:12;;;;;;;14.18;7.68;;;31.30;35.50;;;;;;4975945;28;20500;-74
2023/06/06 07:57:39;;;;;;;10.75;7.97;;;32.40;33.80;;;;;;4992757;28;20052;-75
2023/06/06 08:00:10;;;;;;;11.50;8.20;;;33.30;32.50;;;;;;4995926;28;20037;-75
2023/06/06 08:02:37;;;;;;;9.63;8.05;;;33.90;31.50;;;;;;4998475;28;20040;-75
2023/06/06 08:05:03;;;;;;;9.10;7.53;;;34.40;30.30;;;;;;4990870;28;20039;-75
2023/06/06 08:07:29;;;;;;;9.05;7.93;;;34.80;29.80;;;;;;4961914;28;20066;-75
2023/06/06 08:09:55;;;;;;;9.25;8.30;;;35.20;29.70;;;;;;4986202;28;20026;-75
2023/06/06 08:12:21;;;;;;;10.38;8.77;;;35.60;28.60;;;;;;4986461;28;20030;-75
2023/06/06 08:14:46;;;;;;;10.52;7.97;;;35.80;28.50;;;;;;4997976;28;20473;-75
2023/06/06 08:17:12;;;;;;;9.57;8.50;;;36.10;28.10;;;;;;4978719;28;20022;-75
2023/06/06 08:19:38;;;;;;;11.82;8.27;;;36.30;27.60;;;;;;4997895;28;20561;-75
2023/06/06 08:22:04;;;;;;;10.57;8.50;;;36.50;27.20;;;;;;4980508;28;20030;-75
2023/06/06 08:24:30;;;;;;;9.82;7.82;;;36.60;27.00;;;;;;4996518;28;20094;-75
2023/06/06 08:26:57;;;;;;;9.88;8.45;;;36.80;27.10;;;;;;4990320;28;20093;-76
2023/06/06 08:29:22;;;;;;;8.70;7.70;;;36.90;27.00;;;;;;4997982;28;20022;-75
2023/06/06 08:31:48;;;;;;;8.52;7.40;;;36.80;26.70;;;;;;4987097;28;20085;-78
2023/06/06 08:34:15;;;;;;;10.88;7.53;;;36.80;26.90;;;;;;4979968;28;20057;-76
2023/06/06 08:36:40;;;;;;;10.75;8.07;;;36.90;26.60;;;;;;4995387;28;20062;-76
2023/06/06 08:39:06;;;;;;;8.45;7.50;;;36.90;26.90;;;;;;4989563;28;20041;-76
2023/06/06 08:41:33;;;;;;;12.85;7.57;;;37.00;26.70;;;;;;4986605;28;20473;-76
2023/06/06 08:44:01;;;;;;;10.60;7.85;;;37.00;26.90;;;;;;4989280;28;20452;-76
2023/06/06 08:46:31;;;;;;;8.38;6.80;;;37.10;26.40;;;;;;4986659;28;20389;-75
2023/06/06 08:48:59;;;;;;;8.88;7.38;;;37.00;26.90;;;;;;4987001;28;20022;-75
2023/06/06 08:51:27;;;;;;;8.70;7.00;;;36.90;26.70;;;;;;4987976;28;20029;-75
2023/06/06 08:53:55;;;;;;;7.80;7.00;;;36.80;27.70;;;;;;4984227;28;20029;-75
2023/06/06 08:56:22;;;;;;;9.02;7.43;;;36.90;27.60;;;;;;4986683;28;20636;-75
2023/06/06 08:58:50;;;;;;;9.02;7.20;;;37.00;26.70;;;;;;4981237;28;20153;-75
2023/06/06 09:01:20;;;;;;;8.57;7.53;;;37.30;27.00;;;;;;4977389;28;20060;-75
2023/06/06 09:03:48;;;;;;;8.30;6.57;;;37.30;26.50;;;;;;4974961;28;20029;-75
2023/06/06 09:06:16;;;;;;;8.50;7.60;;;37.50;27.20;;;;;;4979666;28;20434;-75
2023/06/06 09:08:43;;;;;;;9.48;6.90;;;37.80;26.80;;;;;;4977885;28;20015;-75
2023/06/06 09:11:09;;;;;;;8.52;7.10;;;38.00;25.80;;;;;;4990687;28;20030;-75
2023/06/06 09:13:35;;;;;;;9.55;7.13;;;37.80;25.90;;;;;;4987284;28;20525;-75
2023/06/06 09:16:04;;;;;;;8.52;7.03;;;37.90;26.20;;;;;;4985729;28;20046;-75
2023/06/06 09:18:32;;;;;;;8.05;7.20;;;37.90;25.90;;;;;;4987855;28;20485;-75
2023/06/06 09:20:58;;;;;;;9.30;7.00;;;38.00;25.60;;;;;;4984742;28;20027;-75
2023/06/06 09:23:30;;;;;;;8.60;6.80;;;38.10;26.60;;;;;;4988109;28;20033;-75
2023/06/06 09:25:55;;;;;;;7.47;6.60;;;38.20;25.70;;;;;;4988013;28;20037;-75
2023/06/06 09:28:37;;;;;;;7.50;6.80;;;38.10;25.50;;;;;;4988454;28;20018;-75
2023/06/06 09:31:26;;;;;;;8.60;6.85;;;38.20;26.00;;;;;;4986559;28;20056;-75
2023/06/06 09:33:55;;;;;;;9.07;7.18;;;38.40;26.00;;;;;;4989138;28;20026;-75
2023/06/06 09:36:23;;;;;;;9.57;6.87;;;38.40;25.90;;;;;;4979171;28;20054;-75
2023/06/06 09:38:53;;;;;;;8.80;7.18;;;38.40;25.90;;;;;;4986866;28;20577;-76
2023/06/06 09:41:19;;;;;;;;;;;38.50;24.90;;;;;;4988217;28;20019;-75
2023/06/06 09:43:45;;;;;;;7.80;7.00;;;38.50;25.70;;;;;;4988922;28;19910;-75
2023/06/06 09:46:15;;;;;;;8.38;7.32;;;38.80;25.40;;;;;;4975821;28;20018;-75
2023/06/06 09:48:41;;;;;;;10.48;6.70;;;38.80;25.60;;;;;;4984499;28;20073;-75
2023/06/06 09:51:11;;;;;;;7.68;6.78;;;39.00;25.20;;;;;;4986202;28;20030;-75
2023/06/06 09:53:36;;;;;;;7.60;6.80;;;39.10;25.00;;;;;;4987549;28;20080;-75
2023/06/06 09:56:04;;;;;;;8.30;6.93;;;38.80;25.70;;;;;;4967852;28;20113;-75
2023/06/06 09:58:32;;;;;;;6.95;6.30;;;38.80;25.10;;;;;;4986688;28;20060;-75
2023/06/06 10:00:58;;;;;;;9.57;6.45;;;38.90;25.10;;;;;;4987078;28;20181;-75
2023/06/06 10:03:25;;;;;;;8.02;6.82;;;38.80;25.10;;;;;;4973965;28;20022;-75
2023/06/06 10:05:52;;;;;;;9.90;6.38;;;38.70;25.10;;;;;;4969010;28;20396;-75
2023/06/06 10:08:19;;;;;;;7.70;6.78;;;38.70;25.00;;;;;;4968915;28;20568;-75
2023/06/06 10:10:48;;;;;;;6.82;6.18;;;38.60;24.70;;;;;;4970610;28;20038;-75
2023/06/06 10:13:15;;;;;;;7.50;6.65;;;38.30;25.50;;;;;;4986284;28;20058;-75
2023/06/06 10:15:41;;;;;;;7.50;6.32;;;38.40;25.80;;;;;;4987570;28;20752;-75
2023/06/06 10:18:09;;;;;;;7.93;5.47;;;38.30;25.70;;;;;;4983064;28;20088;-75
2023/06/06 10:20:35;;;;;;;7.93;6.30;;;38.20;25.60;;;;;;4986714;28;20366;-75
2023/06/06 10:23:02;;;;;;;8.43;6.50;;;38.00;25.40;;;;;;4979087;28;20040;-75
2023/06/06 10:25:28;;;;;;;6.95;6.18;;;37.90;26.00;;;;;;4988492;28;20110;-75
2023/06/06 10:28:22;;;;;;;9.13;5.70;;;37.60;25.70;;;;;;4984036;28;20031;-75
2023/06/06 10:30:56;;;;;;;7.05;5.30;;;37.30;25.80;;;;;;4988460;28;20063;-75
2023/06/06 10:33:44;;;;;;;6.50;5.57;;;36.80;26.10;;;;;;4969078;28;20026;-75
2023/06/06 10:36:15;;;;;;;8.95;4.93;;;36.40;27.60;;;;;;4986393;28;20396;-75
2023/06/06 10:39:04;;;;;;;7.35;4.75;;;36.00;27.20;;;;;;4986935;28;20026;-75
2023/06/06 10:41:42;;;;;;;7.55;4.65;;;35.30;28.30;;;;;;4976586;28;20034;-75
2023/06/06 10:44:08;;;;;;;7.38;5.13;;;34.80;29.80;;;;;;4984594;28;20030;-75
2023/06/06 10:46:34;;;;;;;10.32;5.30;;;34.20;29.90;;;;;;4985869;28;20031;-75
2023/06/06 10:49:02;;;;;;;8.75;5.13;;;33.70;30.60;;;;;;4982670;28;20023;-75
2023/06/06 10:51:35;;;;;;;7.70;5.10;;;33.20;30.80;;;;;;4984296;28;20018;-75
2023/06/06 10:54:20;;;;;;;9.40;5.45;;;32.80;32.40;;;;;;4989292;28;20026;-75
2023/06/06 10:56:53;;;;;;;8.20;5.22;;;32.70;32.50;;;;;;4974555;28;20023;-74
2023/06/06 10:59:31;;;;;;;8.88;5.60;;;32.30;32.00;;;;;;4984560;28;20027;-75
2023/06/06 11:01:58;;;;;;;7.50;4.80;;;32.00;32.50;;;;;;4977310;28;20033;-75
2023/06/06 11:04:25;;;;;;;9.05;5.35;;;31.90;32.90;;;;;;4987353;28;20095;-75
2023/06/06 11:06:53;;;;;;;8.45;4.53;;;31.80;32.90;;;;;;4983397;28;20515;-75
2023/06/06 11:09:20;;;;;;;8.43;4.88;;;31.70;33.30;;;;;;4986790;28;20112;-75
2023/06/06 11:11:46;;;;;;;8.20;4.63;;;31.30;32.20;;;;;;4984895;28;20027;-75
2023/06/06 11:14:11;;;;;;;7.95;5.25;;;31.10;33.60;;;;;;4976058;28;20030;-75
2023/06/06 11:16:40;;;;;;;10.07;6.32;;;31.10;34.30;;;;;;4984921;28;20022;-74
2023/06/06 11:19:15;;;;;;;8.57;4.93;;;31.00;34.30;;;;;;4972010;28;20076;-75
2023/06/06 11:21:48;;;;;;;7.72;5.20;;;30.90;35.40;;;;;;4982168;28;20724;-76
2023/06/06 11:24:14;;;;;;;;;;;30.90;34.90;;;;;;4986307;28;20025;-74
2023/06/06 11:26:42;;;;;;;8.95;5.32;;;30.80;34.30;;;;;;4985337;28;20174;-76
2023/06/06 11:29:09;;;;;;;10.27;5.28;;;30.80;35.10;;;;;;4990908;28;20408;-75
2023/06/06 11:31:36;;;;;;;9.70;5.18;;;30.70;34.10;;;;;;4998443;28;20058;-74
2023/06/06 11:34:10;;;;;;;8.15;5.63;;;30.60;34.50;;;;;;4987771;28;20026;-74
2023/06/06 11:36:38;;;;;;;9.00;5.28;;;30.60;33.70;;;;;;4997536;28;20092;-76
2023/06/06 11:39:06;;;;;;;10.27;5.72;;;30.60;33.80;;;;;;4980264;28;20089;-75
2023/06/06 11:41:43;;;;;;;7.22;5.60;;;30.40;33.90;;;;;;4983347;28;20377;-75
2023/06/06 11:44:09;;;;;;;9.27;5.85;;;30.30;35.50;;;;;;4975565;28;20034;-75
2023/06/06 11:46:51;;;;;;;9.50;5.60;;;30.20;35.40;;;;;;4979239;28;20453;-75
2023/06/06 11:49:18;;;;;;;;;;;30.10;36.80;;;;;;4979682;28;20373;-75
2023/06/06 11:52:00;;;;;;;9.85;5.50;;;30.40;36.10;;;;;;4979097;28;19910;-75
2023/06/06 11:54:27;;;;;;;10.23;5.70;;;30.50;35.20;;;;;;4979607;28;20468;-75
2023/06/06 11:56:56;;;;;;;7.75;5.03;;;30.40;34.10;;;;;;4993014;28;20034;-75
2023/06/06 11:59:22;;;;;;;7.40;5.05;;;30.30;34.80;;;;;;4998481;28;20049;-75
2023/06/06 12:01:50;;;;;;;9.43;5.78;;;30.40;35.20;;;;;;4992518;28;20493;-75
2023/06/06 12:04:22;;;;;;;8.25;5.30;;;30.30;35.50;;;;;;4988549;28;20046;-75
2023/06/06 12:06:50;;;;;;;7.70;5.50;;;30.40;35.70;;;;;;4994254;28;20054;-75
2023/06/06 12:09:18;;;;;;;7.28;5.30;;;30.40;34.40;;;;;;4979024;28;20034;-76
2023/06/06 12:12:01;;;;;;;7.30;4.90;;;30.30;34.30;;;;;;4980313;28;20031;-76
2023/06/06 12:14:28;;;;;;;9.13;4.78;;;30.20;33.90;;;;;;4961303;28;20030;-76
2023/06/06 12:17:10;;;;;;;8.18;5.15;;;30.20;34.50;;;;;;4978710;28;20027;-75
2023/06/06 12:19:37;;;;;;;7.37;4.83;;;30.10;34.50;;;;;;4984974;28;20037;-75
2023/06/06 12:22:03;;;;;;;6.82;4.72;;;30.30;35.30;;;;;;4997663;28;20332;-77
2023/06/06 12:24:31;;;;;;;6.95;4.50;;;30.20;32.60;;;;;;4997995;28;20489;-76
2023/06/06 12:27:02;;;;;;;6.40;4.45;;;30.20;33.50;;;;;;4990470;28;20026;-75
2023/06/06 12:29:35;;;;;;;6.22;4.43;;;29.80;34.20;;;;;;4997593;28;20073;-75
2023/06/06 12:32:29;;;;;;;7.72;4.68;;;29.90;34.30;;;;;;4996438;28;20050;-76
2023/06/06 12:35:01;;;;;;;8.25;4.93;;;29.90;33.70;;;;;;4989438;28;20030;-76
2023/06/06 12:37:45;;;;;;;8.18;4.72;;;29.80;36.00;;;;;;4988336;28;20164;-75
2023/06/06 12:40:23;;;;;;;7.72;4.30;;;29.70;32.20;;;;;;4986166;28;20030;-75
2023/06/06 12:42:54;;;;;;;10.75;4.97;;;29.80;34.10;;;;;;4989100;28;20566;-75
2023/06/06 12:45:21;;;;;;;10.27;4.63;;;29.80;33.80;;;;;;4984541;28;20030;-75
2023/06/06 12:47:55;;;;;;;7.57;4.78;;;29.80;34.00;;;;;;4993567;28;20109;-75
2023/06/06 12:50:21;;;;;;;7.00;4.72;;;29.80;34.70;;;;;;4985740;28;20050;-75
2023/06/06 12:52:48;;;;;;;7.10;4.82;;;29.80;33.40;;;;;;4985209;28;20045;-75
2023/06/06 12:55:15;;;;;;;5.90;4.25;;;29.80;33.30;;;;;;4987753;28;20497;-76
2023/06/06 12:57:40;;;;;;;6.78;4.75;;;29.80;32.90;;;;;;4989305;28;20073;-75
2023/06/06 13:00:10;;;;;;;8.07;4.50;;;29.90;31.60;;;;;;4985532;28;20440;-75
2023/06/06 13:02:37;;;;;;;6.72;4.68;;;29.70;33.30;;;;;;4987322;28;20011;-76
2023/06/06 13:05:03;;;;;;;6.95;4.47;;;29.70;33.60;;;;;;4990621;28;20520;-75
2023/06/06 13:07:28;;;;;;;7.57;4.57;;;29.60;33.20;;;;;;4986187;28;20018;-75
2023/06/06 13:09:55;;;;;;;8.95;5.72;;;29.70;32.50;;;;;;4986362;28;20037;-76
2023/06/06 13:12:22;;;;;;;6.53;4.35;;;29.80;31.80;;;;;;4966853;28;21578;-75
2023/06/06 13:14:48;;;;;;;6.95;4.30;;;29.90;33.20;;;;;;4987944;28;20046;-76
2023/06/06 13:17:16;;;;;;;5.85;4.07;;;29.80;33.60;;;;;;4984257;28;20590;-76
2023/06/06 13:19:42;;;;;;;6.63;4.72;;;29.80;33.20;;;;;;4986309;28;20508;-76
2023/06/06 13:22:08;;;;;;;6.50;4.40;;;29.70;33.00;;;;;;4986360;28;20026;-76
2023/06/06 13:24:33;;;;;;;8.80;4.95;;;29.70;33.50;;;;;;4985479;28;20031;-75
2023/06/06 13:27:00;;;;;;;7.05;4.72;;;29.60;34.50;;;;;;4986329;28;20031;-75
2023/06/06 13:29:26;;;;;;;8.93;4.45;;;29.70;32.90;;;;;;4986325;28;20035;-76
2023/06/06 13:31:52;;;;;;;6.85;4.72;;;29.90;33.60;;;;;;4987574;28;20054;-76
2023/06/06 13:34:18;;;;;;;7.65;4.68;;;30.10;33.40;;;;;;4989183;28;20034;-76
2023/06/06 13:36:44;;;;;;;8.25;4.75;;;30.00;32.50;;;;;;4984357;28;20468;-76
2023/06/06 13:39:10;;;;;;;6.65;4.80;;;29.90;32.40;;;;;;4987539;28;20495;-76
2023/06/06 13:41:36;;;;;;;7.47;4.82;;;29.80;31.90;;;;;;4984668;28;20033;-76
2023/06/06 13:44:02;;;;;;;7.45;4.47;;;29.50;32.30;;;;;;4989142;28;20511;-76
2023/06/06 13:46:29;;;;;;;9.80;5.25;;;29.70;34.40;;;;;;4987427;28;20034;-76
2023/06/06 13:48:54;;;;;;;7.38;4.13;;;29.90;32.70;;;;;;4996431;28;20487;-76
2023/06/06 13:51:21;;;;;;;7.00;4.22;;;30.00;33.30;;;;;;4991725;28;20065;-76
2023/06/06 13:53:46;;;;;;;5.65;4.70;;;29.90;33.40;;;;;;4988667;28;20110;-76
2023/06/06 13:56:13;;;;;;;6.57;4.55;;;29.50;33.50;;;;;;4995056;28;20077;-76
2023/06/06 13:58:49;;;;;;;8.15;4.75;;;29.20;33.90;;;;;;4987510;28;20497;-76
2023/06/06 14:01:16;;;;;;;7.13;5.00;;;28.90;34.20;;;;;;4992412;28;20029;-76
2023/06/06 14:03:42;;;;;;;7.05;4.40;;;29.00;34.40;;;;;;4989220;28;20023;-76
2023/06/06 14:06:07;;;;;;;6.80;4.50;;;29.20;34.40;;;;;;4984741;28;20381;-76
2023/06/06 14:08:33;;;;;;;11.07;4.70;;;29.30;35.40;;;;;;4985950;28;20019;-76
2023/06/06 14:11:02;;;;;;;8.18;4.93;;;29.50;33.40;;;;;;4989635;28;20034;-76
2023/06/06 14:13:28;;;;;;;7.97;4.53;;;29.60;33.30;;;;;;4988505;28;20018;-75
2023/06/06 14:15:54;;;;;;;7.05;4.60;;;29.60;32.20;;;;;;4984403;28;20101;-76
2023/06/06 14:18:20;;;;;;;7.07;5.07;;;29.70;33.60;;;;;;4983759;28;20047;-76
2023/06/06 14:20:59;;;;;;;7.43;4.18;;;29.90;33.20;;;;;;4986836;28;20034;-76
2023/06/06 14:23:25;;;;;;;5.13;4.18;;;29.80;33.00;;;;;;4989013;28;20053;-76
2023/06/06 14:25:54;;;;;;;6.00;4.35;;;29.70;32.90;;;;;;4985109;28;20063;-75
2023/06/06 14:28:19;;;;;;;6.57;4.03;;;29.30;33.50;;;;;;4987804;28;20023;-76
2023/06/06 14:30:45;;;;;;;7.50;4.38;;;29.20;34.20;;;;;;4984732;28;20058;-75
2023/06/06 14:33:11;;;;;;;8.10;4.50;;;29.00;34.10;;;;;;4969587;28;20018;-75
2023/06/06 14:35:37;;;;;;;6.10;4.45;;;28.80;35.20;;;;;;4988242;28;20033;-76
2023/06/06 14:38:04;;;;;;;6.05;4.10;;;28.90;34.50;;;;;;4988742;28;20022;-76
2023/06/06 14:40:30;;;;;;;7.28;4.32;;;29.20;34.30;;;;;;4984339;28;20035;-75
2023/06/06 14:42:55;;;;;;;5.85;4.35;;;29.00;33.90;;;;;;4987590;28;20030;-75
2023/06/06 14:45:21;;;;;;;6.25;4.45;;;29.10;34.30;;;;;;4988492;28;20042;-75
2023/06/06 14:47:47;;;;;;;7.07;4.70;;;29.20;34.30;;;;;;4984932;28;20026;-75
2023/06/06 14:50:14;;;;;;;8.70;4.80;;;29.40;35.00;;;;;;4986940;28;20074;-75
2023/06/06 14:52:39;;;;;;;6.88;4.13;;;29.60;35.30;;;;;;4980774;28;20525;-76
2023/06/06 14:55:06;;;;;;;9.02;4.35;;;29.70;34.60;;;;;;4976171;28;20062;-76
2023/06/06 14:57:32;;;;;;;6.20;4.10;;;29.80;35.50;;;;;;4978515;28;20026;-76
2023/06/06 14:59:57;;;;;;;7.35;4.40;;;29.60;35.60;;;;;;4979774;28;20105;-77
2023/06/06 15:02:23;;;;;;;6.25;4.18;;;29.30;35.80;;;;;;4975663;28;20038;-75
2023/06/06 15:04:50;;;;;;;7.45;4.22;;;29.10;36.20;;;;;;4993535;28;20026;-76
2023/06/06 15:07:15;;;;;;;7.45;4.70;;;29.10;36.10;;;;;;4983699;28;20049;-76
2023/06/06 15:09:41;;;;;;;6.85;4.53;;;29.00;35.20;;;;;;4970037;28;20137;-76
2023/06/06 15:12:11;;;;;;;6.65;4.45;;;29.10;35.50;;;;;;4986227;28;20022;-75
2023/06/06 15:14:38;;;;;;;7.13;4.32;;;29.00;36.60;;;;;;4994849;28;20029;-77
2023/06/06 15:17:05;;;;;;;6.93;4.40;;;28.80;36.60;;;;;;4987725;28;20034;-76
2023/06/06 15:19:31;;;;;;;8.55;4.65;;;29.00;37.10;;;;;;4988031;28;20156;-77
2023/06/06 15:21:59;;;;;;;7.30;4.40;;;29.20;36.50;;;;;;4978844;28;20481;-77
2023/06/06 15:24:25;;;;;;;6.88;4.70;;;29.20;37.80;;;;;;4991253;28;20456;-76
2023/06/06 15:26:56;;;;;;;6.63;4.40;;;28.90;36.20;;;;;;4988644;28;20023;-76
2023/06/06 15:29:21;;;;;;;7.90;4.53;;;28.70;36.50;;;;;;4987666;28;20077;-76
2023/06/06 15:31:47;;;;;;;5.93;4.40;;;28.60;37.00;;;;;;4985694;28;20066;-76
2023/06/06 15:34:14;;;;;;;9.00;4.90;;;28.60;36.90;;;;;;4974215;28;20034;-80
2023/06/06 15:36:40;;;;;;;7.35;5.00;;;28.50;37.20;;;;;;4985488;28;20026;-76
2023/06/06 15:39:05;;;;;;;7.65;4.45;;;28.50;37.10;;;;;;4983537;28;20847;-75
2023/06/06 15:41:31;;;;;;;8.68;5.00;;;28.40;37.30;;;;;;4989863;28;20173;-76
2023/06/06 15:43:57;;;;;;;9.15;4.57;;;28.40;37.80;;;;;;4990507;28;20081;-76
2023/06/06 15:46:24;;;;;;;6.40;4.57;;;28.30;38.60;;;;;;4987220;28;20117;-76
2023/06/06 15:48:49;;;;;;;8.95;5.15;;;28.40;39.00;;;;;;4986942;28;20029;-76
2023/06/06 15:51:17;;;;;;;10.32;4.65;;;28.30;39.90;;;;;;4986518;28;20445;-77
2023/06/06 15:53:43;;;;;;;8.90;5.18;;;28.10;39.60;;;;;;4989785;28;20022;-78
2023/06/06 15:56:08;;;;;;;7.18;4.70;;;27.60;39.60;;;;;;5005815;28;20038;-79
2023/06/06 15:58:34;;;;;;;7.63;5.03;;;27.20;40.80;;;;;;4997479;28;20182;-80
2023/06/06 16:01:00;;;;;;;8.32;5.43;;;27.20;42.20;;;;;;4986742;28;20068;-81
2023/06/06 16:03:25;;;;;;;8.75;5.50;;;27.30;43.00;;;;;;4988148;28;20114;-82
2023/06/06 16:05:51;;;;;;;7.68;5.30;;;27.50;42.60;;;;;;4993329;28;20029;-78
2023/06/06 16:08:18;;;;;;;9.02;5.43;;;27.70;42.10;;;;;;4974302;28;20485;-81
2023/06/06 16:10:44;;;;;;;7.65;5.35;;;27.80;41.70;;;;;;4990853;28;20022;-77
2023/06/06 16:13:10;;;;;;;7.93;5.50;;;28.00;41.80;;;;;;4971691;28;21313;-79
2023/06/06 16:15:36;;;;;;;8.90;5.63;;;28.30;40.40;;;;;;4988395;28;20037;-77
2023/06/06 16:18:02;;;;;;;10.02;5.20;;;28.50;40.20;;;;;;4979021;28;20019;-77
2023/06/06 16:20:28;;;;;;;8.15;5.05;;;28.70;39.20;;;;;;4978810;28;20026;-78
2023/06/06 16:22:53;;;;;;;8.43;5.57;;;28.60;40.20;;;;;;4997450;28;20109;-77
2023/06/06 16:25:19;;;;;;;8.98;5.28;;;28.50;39.60;;;;;;4975945;28;20026;-78
2023/06/06 16:27:45;;;;;;;7.82;5.55;;;28.50;39.70;;;;;;4979067;28;20034;-78
2023/06/06 16:30:12;;;;;;;7.82;5.43;;;28.50;39.90;;;;;;4984675;28;20046;-78
2023/06/06 16:32:38;;;;;;;10.77;5.18;;;28.40;39.60;;;;;;4986900;28;20106;-78
2023/06/06 16:35:04;;;;;;;8.40;5.70;;;28.30;40.00;;;;;;4990539;28;20507;-78
2023/06/06 16:37:30;;;;;;;8.80;5.80;;;28.00;40.20;;;;;;4991482;28;20069;-76
2023/06/06 16:39:56;;;;;;;8.77;5.47;;;27.90;40.70;;;;;;4985854;28;20035;-77
2023/06/06 16:42:21;;;;;;;9.98;5.88;;;27.80;40.80;;;;;;4988962;28;20401;-78
2023/06/06 16:44:47;;;;;;;8.73;5.53;;;27.80;41.10;;;;;;4990129;28;20038;-78
2023/06/06 16:47:13;;;;;;;12.38;6.10;;;27.80;41.10;;;;;;4993062;28;20476;-78
2023/06/06 16:49:39;;;;;;;8.52;5.88;;;27.70;41.40;;;;;;4997484;28;20061;-77
2023/06/06 16:52:05;;;;;;;10.23;5.97;;;27.60;41.90;;;;;;4985967;28;20038;-77
2023/06/06 16:54:32;;;;;;;11.50;6.28;;;27.60;42.10;;;;;;4978162;28;20744;-78
2023/06/06 16:56:57;;;;;;;12.35;6.00;;;27.60;42.10;;;;;;4981896;28;20117;-77
2023/06/06 16:59:23;;;;;;;10.13;6.35;;;27.50;41.90;;;;;;4983782;28;20077;-78
2023/06/06 17:01:48;;;;;;;9.32;5.60;;;27.50;42.10;;;;;;4988530;28;20065;-76
2023/06/06 17:04:14;;;;;;;9.55;5.80;;;27.40;42.20;;;;;;4992463;28;20023;-76
2023/06/06 17:06:40;;;;;;;8.15;5.60;;;27.40;42.50;;;;;;4981916;28;20038;-73
2023/06/06 17:09:06;;;;;;;9.35;6.20;;;27.40;42.40;;;;;;4987991;28;20110;-73
2023/06/06 17:11:32;;;;;;;10.88;5.57;;;27.30;42.60;;;;;;4986061;28;20051;-74
2023/06/06 17:13:57;;;;;;;13.35;7.18;;;27.30;43.00;;;;;;4989927;28;20033;-73
2023/06/06 17:16:23;;;;;;;10.57;6.13;;;27.10;42.90;;;;;;4986765;28;20026;-77